sensor_id;sensor_type;location;lat;lon;timestamp;temperature;humidity
3478;DHT22;37937;61.490;23.506;2022-08-04T00:04:07;18.80;99.90
3478;DHT22;37937;61.490;23.506;2022-08-04T00:09:15;18.70;99.90
3478;DHT22;37937;61.490;23.506;2022-08-04T00:11:44;18.60;99.90
3478;DHT22;37937;61.490;23.506;2022-08-04T00:14:14;18.60;99.90
3478;DHT22;37937;61.490;23.506;2022-08-04T00:16:43;18.70;99.90
3478;DHT22;37937;61.490;23.506;2022-08-04T00:19:12;18.80;99.90
3478;DHT22;37937;61.490;23.506;2022-08-04T00:21:41;18.80;99.90
3478;DHT22;37937;61.490;23.506;2022-08-04T00:24:11;18.60;99.90
3478;DHT22;37937;61.490;23.506;2022-08-04T00:26:37;18.70;99.90
3478;DHT22;37937;61.490;23.506;2022-08-04T00:29:04;18.60;99.90
3478;DHT22;37937;61.490;23.506;2022-08-04T00:31:29;18.60;99.90
3478;DHT22;37937;61.490;23.506;2022-08-04T00:33:55;18.60;99.90
3478;DHT22;37937;61.490;23.506;2022-08-04T00:36:21;18.50;99.90
3478;DHT22;37937;61.490;23.506;2022-08-04T00:38:48;18.60;99.90
3478;DHT22;37937;61.490;23.506;2022-08-04T00:43:58;18.50;99.90
3478;DHT22;37937;61.490;23.506;2022-08-04T00:49:27;18.60;99.90
3478;DHT22;37937;61.490;23.506;2022-08-04T00:54:55;18.50;99.90
3478;DHT22;37937;61.490;23.506;2022-08-04T01:05:02;18.50;99.90
3478;DHT22;37937;61.490;23.506;2022-08-04T01:10:04;18.40;99.90
3478;DHT22;37937;61.490;23.506;2022-08-04T01:18:13;18.50;99.90
3478;DHT22;37937;61.490;23.506;2022-08-04T01:20:25;18.50;99.90
3478;DHT22;37937;61.490;23.506;2022-08-04T01:23:01;18.40;99.90
3478;DHT22;37937;61.490;23.506;2022-08-04T01:25:52;18.40;99.90
3478;DHT22;37937;61.490;23.506;2022-08-04T01:31:13;18.20;99.90
3478;DHT22;37937;61.490;23.506;2022-08-04T01:33:43;18.20;99.90
3478;DHT22;37937;61.490;23.506;2022-08-04T01:36:11;18.20;99.90
3478;DHT22;37937;61.490;23.506;2022-08-04T01:38:40;18.20;99.90
3478;DHT22;37937;61.490;23.506;2022-08-04T01:41:07;18.20;99.90
3478;DHT22;37937;61.490;23.506;2022-08-04T01:43:34;18.10;99.90
3478;DHT22;37937;61.490;23.506;2022-08-04T01:46:01;18.10;99.90
3478;DHT22;37937;61.490;23.506;2022-08-04T01:48:28;18.10;99.90
3478;DHT22;37937;61.490;23.506;2022-08-04T01:50:59;18.20;99.90
3478;DHT22;37937;61.490;23.506;2022-08-04T01:53:28;18.00;99.90
3478;DHT22;37937;61.490;23.506;2022-08-04T01:55:55;18.00;99.90
3478;DHT22;37937;61.490;23.506;2022-08-04T01:58:21;17.90;99.90
3478;DHT22;37937;61.490;23.506;2022-08-04T02:00:57;17.90;99.90
3478;DHT22;37937;61.490;23.506;2022-08-04T02:03:24;17.80;99.90
3478;DHT22;37937;61.490;23.506;2022-08-04T02:05:49;17.60;99.90
3478;DHT22;37937;61.490;23.506;2022-08-04T02:11:08;17.50;99.90
3478;DHT22;37937;61.490;23.506;2022-08-04T02:13:41;17.70;99.90
3478;DHT22;37937;61.490;23.506;2022-08-04T02:21:22;17.60;99.90
3478;DHT22;37937;61.490;23.506;2022-08-04T02:23:50;17.70;99.90
3478;DHT22;37937;61.490;23.506;2022-08-04T02:26:21;17.80;99.90
3478;DHT22;37937;61.490;23.506;2022-08-04T02:28:49;17.80;99.90
3478;DHT22;37937;61.490;23.506;2022-08-04T02:31:30;17.80;99.90
3478;DHT22;37937;61.490;23.506;2022-08-04T02:36:41;17.80;99.90
3478;DHT22;37937;61.490;23.506;2022-08-04T02:39:11;17.80;99.90
3478;DHT22;37937;61.490;23.506;2022-08-04T02:41:38;17.80;99.90
3478;DHT22;37937;61.490;23.506;2022-08-04T02:44:05;17.80;99.90
3478;DHT22;37937;61.490;23.506;2022-08-04T02:46:32;17.90;99.90
3478;DHT22;37937;61.490;23.506;2022-08-04T02:48:57;17.80;99.90
3478;DHT22;37937;61.490;23.506;2022-08-04T02:51:29;17.90;99.90
3478;DHT22;37937;61.490;23.506;2022-08-04T02:53:56;17.80;99.90
3478;DHT22;37937;61.490;23.506;2022-08-04T02:56:23;17.80;99.90
3478;DHT22;37937;61.490;23.506;2022-08-04T02:58:53;17.70;99.90
3478;DHT22;37937;61.490;23.506;2022-08-04T03:01:20;17.70;99.90
3478;DHT22;37937;61.490;23.506;2022-08-04T03:03:48;17.80;99.90
3478;DHT22;37937;61.490;23.506;2022-08-04T03:06:27;17.80;99.90
3478;DHT22;37937;61.490;23.506;2022-08-04T03:09:09;17.80;99.90
3478;DHT22;37937;61.490;23.506;2022-08-04T03:19:41;17.90;99.90
3478;DHT22;37937;61.490;23.506;2022-08-04T03:22:26;17.90;99.90
3478;DHT22;37937;61.490;23.506;2022-08-04T03:30:19;17.90;99.90
3478;DHT22;37937;61.490;23.506;2022-08-04T03:48:52;17.90;99.90
3478;DHT22;37937;61.490;23.506;2022-08-04T03:54:27;18.00;99.90
3478;DHT22;37937;61.490;23.506;2022-08-04T03:57:31;17.90;99.90
3478;DHT22;37937;61.490;23.506;2022-08-04T04:03:24;17.90;99.90
3478;DHT22;37937;61.490;23.506;2022-08-04T04:10:33;17.90;99.90
3478;DHT22;37937;61.490;23.506;2022-08-04T04:23:55;18.10;99.90
3478;DHT22;37937;61.490;23.506;2022-08-04T04:26:36;18.20;99.90
3478;DHT22;37937;61.490;23.506;2022-08-04T04:44:28;18.60;99.90
3478;DHT22;37937;61.490;23.506;2022-08-04T04:55:18;18.50;99.90
3478;DHT22;37937;61.490;23.506;2022-08-04T04:57:41;18.40;99.90
3478;DHT22;37937;61.490;23.506;2022-08-04T05:00:09;18.40;99.90
3478;DHT22;37937;61.490;23.506;2022-08-04T05:03:22;18.40;99.90
3478;DHT22;37937;61.490;23.506;2022-08-04T05:05:26;18.40;99.90
3478;DHT22;37937;61.490;23.506;2022-08-04T05:13:22;18.40;99.90
3478;DHT22;37937;61.490;23.506;2022-08-04T05:15:52;18.50;99.90
3478;DHT22;37937;61.490;23.506;2022-08-04T05:18:21;18.50;99.90
3478;DHT22;37937;61.490;23.506;2022-08-04T05:21:02;18.70;99.90
3478;DHT22;37937;61.490;23.506;2022-08-04T05:23:30;18.70;99.90
3478;DHT22;37937;61.490;23.506;2022-08-04T05:25:58;18.70;99.90
3478;DHT22;37937;61.490;23.506;2022-08-04T05:31:01;18.60;99.90
3478;DHT22;37937;61.490;23.506;2022-08-04T05:36:16;18.60;99.90
3478;DHT22;37937;61.490;23.506;2022-08-04T05:38:42;18.70;99.90
3478;DHT22;37937;61.490;23.506;2022-08-04T05:41:09;18.80;99.90
3478;DHT22;37937;61.490;23.506;2022-08-04T05:43:36;18.90;99.90
3478;DHT22;37937;61.490;23.506;2022-08-04T05:46:02;19.00;99.90
3478;DHT22;37937;61.490;23.506;2022-08-04T05:48:28;19.00;99.90
3478;DHT22;37937;61.490;23.506;2022-08-04T05:50:56;19.00;99.90
3478;DHT22;37937;61.490;23.506;2022-08-04T05:53:23;19.00;99.90
3478;DHT22;37937;61.490;23.506;2022-08-04T05:55:49;19.20;99.90
3478;DHT22;37937;61.490;23.506;2022-08-04T05:58:15;19.30;99.90
3478;DHT22;37937;61.490;23.506;2022-08-04T06:00:41;19.40;99.90
3478;DHT22;37937;61.490;23.506;2022-08-04T06:03:08;19.60;99.90
3478;DHT22;37937;61.490;23.506;2022-08-04T06:05:34;19.70;99.90
3478;DHT22;37937;61.490;23.506;2022-08-04T06:08:00;19.70;99.90
3478;DHT22;37937;61.490;23.506;2022-08-04T06:10:26;19.70;99.90
3478;DHT22;37937;61.490;23.506;2022-08-04T06:12:57;19.60;99.90
3478;DHT22;37937;61.490;23.506;2022-08-04T06:15:25;19.50;99.90
3478;DHT22;37937;61.490;23.506;2022-08-04T06:17:53;19.70;99.90
3478;DHT22;37937;61.490;23.506;2022-08-04T06:20:20;20.00;99.90
3478;DHT22;37937;61.490;23.506;2022-08-04T06:22:54;20.10;99.90
3478;DHT22;37937;61.490;23.506;2022-08-04T06:25:24;20.30;99.90
3478;DHT22;37937;61.490;23.506;2022-08-04T06:27:50;20.50;99.90
3478;DHT22;37937;61.490;23.506;2022-08-04T06:30:16;20.70;99.90
3478;DHT22;37937;61.490;23.506;2022-08-04T06:32:44;21.00;99.90
3478;DHT22;37937;61.490;23.506;2022-08-04T06:35:16;21.00;99.90
3478;DHT22;37937;61.490;23.506;2022-08-04T06:37:44;21.30;99.90
3478;DHT22;37937;61.490;23.506;2022-08-04T06:40:14;21.70;99.90
3478;DHT22;37937;61.490;23.506;2022-08-04T06:42:40;21.70;99.90
3478;DHT22;37937;61.490;23.506;2022-08-04T06:45:06;22.30;99.90
3478;DHT22;37937;61.490;23.506;2022-08-04T06:47:34;22.30;99.90
3478;DHT22;37937;61.490;23.506;2022-08-04T06:50:00;22.40;99.90
3478;DHT22;37937;61.490;23.506;2022-08-04T06:52:26;22.70;99.90
3478;DHT22;37937;61.490;23.506;2022-08-04T06:54:52;22.40;99.90
3478;DHT22;37937;61.490;23.506;2022-08-04T06:57:24;22.40;99.90
3478;DHT22;37937;61.490;23.506;2022-08-04T06:59:52;22.80;99.90
3478;DHT22;37937;61.490;23.506;2022-08-04T07:02:20;23.00;99.90
3478;DHT22;37937;61.490;23.506;2022-08-04T07:04:47;23.30;99.90
3478;DHT22;37937;61.490;23.506;2022-08-04T07:07:13;23.60;99.90
3478;DHT22;37937;61.490;23.506;2022-08-04T07:09:39;23.20;99.90
3478;DHT22;37937;61.490;23.506;2022-08-04T07:12:05;23.00;99.90
3478;DHT22;37937;61.490;23.506;2022-08-04T07:14:31;22.60;99.90
3478;DHT22;37937;61.490;23.506;2022-08-04T07:17:03;22.40;99.90
3478;DHT22;37937;61.490;23.506;2022-08-04T07:19:33;22.40;99.90
3478;DHT22;37937;61.490;23.506;2022-08-04T07:21:58;22.40;99.90
3478;DHT22;37937;61.490;23.506;2022-08-04T07:24:31;22.50;99.90
3478;DHT22;37937;61.490;23.506;2022-08-04T07:26:57;22.70;99.90
3478;DHT22;37937;61.490;23.506;2022-08-04T07:29:24;23.00;99.90
3478;DHT22;37937;61.490;23.506;2022-08-04T07:31:50;23.10;99.90
3478;DHT22;37937;61.490;23.506;2022-08-04T07:34:18;22.90;99.90
3478;DHT22;37937;61.490;23.506;2022-08-04T07:36:44;22.90;99.90
3478;DHT22;37937;61.490;23.506;2022-08-04T07:39:10;22.90;99.90
3478;DHT22;37937;61.490;23.506;2022-08-04T07:41:36;23.30;99.90
3478;DHT22;37937;61.490;23.506;2022-08-04T07:44:02;23.40;99.90
3478;DHT22;37937;61.490;23.506;2022-08-04T07:46:28;23.80;99.90
3478;DHT22;37937;61.490;23.506;2022-08-04T07:48:54;23.60;99.90
3478;DHT22;37937;61.490;23.506;2022-08-04T07:51:20;24.00;99.90
3478;DHT22;37937;61.490;23.506;2022-08-04T07:53:47;24.20;99.90
3478;DHT22;37937;61.490;23.506;2022-08-04T07:56:13;24.10;99.90
3478;DHT22;37937;61.490;23.506;2022-08-04T07:58:40;24.30;99.90
3478;DHT22;37937;61.490;23.506;2022-08-04T08:01:05;24.60;99.90
3478;DHT22;37937;61.490;23.506;2022-08-04T08:03:31;24.80;99.90
3478;DHT22;37937;61.490;23.506;2022-08-04T08:05:57;24.60;99.90
3478;DHT22;37937;61.490;23.506;2022-08-04T08:08:23;24.50;99.90
3478;DHT22;37937;61.490;23.506;2022-08-04T08:10:49;24.90;99.90
3478;DHT22;37937;61.490;23.506;2022-08-04T08:13:15;25.10;99.90
3478;DHT22;37937;61.490;23.506;2022-08-04T08:15:42;25.10;99.90
3478;DHT22;37937;61.490;23.506;2022-08-04T08:18:09;25.00;99.90
3478;DHT22;37937;61.490;23.506;2022-08-04T08:20:34;25.20;99.90
3478;DHT22;37937;61.490;23.506;2022-08-04T08:23:00;25.00;99.90
3478;DHT22;37937;61.490;23.506;2022-08-04T08:25:28;25.00;99.90
3478;DHT22;37937;61.490;23.506;2022-08-04T08:27:54;25.00;99.90
3478;DHT22;37937;61.490;23.506;2022-08-04T08:30:19;25.50;99.90
3478;DHT22;37937;61.490;23.506;2022-08-04T08:32:45;25.60;99.90
3478;DHT22;37937;61.490;23.506;2022-08-04T08:35:11;25.30;99.90
3478;DHT22;37937;61.490;23.506;2022-08-04T08:37:37;25.00;99.90
3478;DHT22;37937;61.490;23.506;2022-08-04T09:01:08;24.50;99.90
3478;DHT22;37937;61.490;23.506;2022-08-04T09:09:05;25.00;99.90
3478;DHT22;37937;61.490;23.506;2022-08-04T09:11:43;24.90;99.90
3478;DHT22;37937;61.490;23.506;2022-08-04T09:14:20;25.10;99.90
3478;DHT22;37937;61.490;23.506;2022-08-04T09:16:50;25.00;99.90
3478;DHT22;37937;61.490;23.506;2022-08-04T09:19:26;25.50;99.90
3478;DHT22;37937;61.490;23.506;2022-08-04T09:22:03;25.70;99.90
3478;DHT22;37937;61.490;23.506;2022-08-04T09:27:25;25.70;99.90
3478;DHT22;37937;61.490;23.506;2022-08-04T09:40:39;25.80;99.90
3478;DHT22;37937;61.490;23.506;2022-08-04T09:43:19;25.60;99.90
3478;DHT22;37937;61.490;23.506;2022-08-04T09:46:05;25.50;99.90
3478;DHT22;37937;61.490;23.506;2022-08-04T09:51:08;25.20;99.90
3478;DHT22;37937;61.490;23.506;2022-08-04T09:53:38;25.50;99.90
3478;DHT22;37937;61.490;23.506;2022-08-04T10:01:02;25.70;99.90
3478;DHT22;37937;61.490;23.506;2022-08-04T10:03:32;25.60;99.90
3478;DHT22;37937;61.490;23.506;2022-08-04T10:11:16;25.40;99.90
3478;DHT22;37937;61.490;23.506;2022-08-04T10:21:41;25.30;99.90
3478;DHT22;37937;61.490;23.506;2022-08-04T10:26:41;25.60;99.90
3478;DHT22;37937;61.490;23.506;2022-08-04T10:29:18;25.80;99.90
3478;DHT22;37937;61.490;23.506;2022-08-04T10:31:53;25.60;99.90
3478;DHT22;37937;61.490;23.506;2022-08-04T10:34:20;25.70;99.90
3478;DHT22;37937;61.490;23.506;2022-08-04T10:36:52;26.20;99.90
3478;DHT22;37937;61.490;23.506;2022-08-04T10:39:24;26.10;99.90
3478;DHT22;37937;61.490;23.506;2022-08-04T10:41:55;26.10;99.90
3478;DHT22;37937;61.490;23.506;2022-08-04T10:46:54;25.90;99.90
3478;DHT22;37937;61.490;23.506;2022-08-04T10:49:22;26.40;99.90
3478;DHT22;37937;61.490;23.506;2022-08-04T10:52:02;26.30;99.90
3478;DHT22;37937;61.490;23.506;2022-08-04T10:57:18;25.70;99.90
3478;DHT22;37937;61.490;23.506;2022-08-04T11:02:29;26.20;99.90
3478;DHT22;37937;61.490;23.506;2022-08-04T11:05:05;26.00;99.90
3478;DHT22;37937;61.490;23.506;2022-08-04T11:07:36;25.30;99.90
3478;DHT22;37937;61.490;23.506;2022-08-04T11:10:03;25.60;99.90
3478;DHT22;37937;61.490;23.506;2022-08-04T11:12:29;25.80;99.90
3478;DHT22;37937;61.490;23.506;2022-08-04T11:14:58;25.70;99.90
3478;DHT22;37937;61.490;23.506;2022-08-04T11:17:36;25.70;99.90
3478;DHT22;37937;61.490;23.506;2022-08-04T11:25:19;25.40;99.90
3478;DHT22;37937;61.490;23.506;2022-08-04T11:30:25;26.20;99.90
3478;DHT22;37937;61.490;23.506;2022-08-04T11:35:30;25.30;99.90
3478;DHT22;37937;61.490;23.506;2022-08-04T11:37:57;25.00;99.90
3478;DHT22;37937;61.490;23.506;2022-08-04T11:40:35;25.10;99.90
3478;DHT22;37937;61.490;23.506;2022-08-04T11:43:03;25.20;99.90
3478;DHT22;37937;61.490;23.506;2022-08-04T11:45:33;25.40;99.90
3478;DHT22;37937;61.490;23.506;2022-08-04T11:48:44;25.80;99.90
3478;DHT22;37937;61.490;23.506;2022-08-04T11:50:51;25.80;99.90
3478;DHT22;37937;61.490;23.506;2022-08-04T11:53:19;26.10;99.90
3478;DHT22;37937;61.490;23.506;2022-08-04T11:55:48;25.90;99.90
3478;DHT22;37937;61.490;23.506;2022-08-04T11:58:14;25.90;99.90
3478;DHT22;37937;61.490;23.506;2022-08-04T12:00:44;25.70;99.90
3478;DHT22;37937;61.490;23.506;2022-08-04T12:08:44;25.60;99.90
3478;DHT22;37937;61.490;23.506;2022-08-04T12:11:33;26.10;99.90
3478;DHT22;37937;61.490;23.506;2022-08-04T12:14:05;26.20;99.90
3478;DHT22;37937;61.490;23.506;2022-08-04T12:16:41;26.20;99.90
3478;DHT22;37937;61.490;23.506;2022-08-04T12:19:16;25.90;99.90
3478;DHT22;37937;61.490;23.506;2022-08-04T12:21:53;26.00;99.90
3478;DHT22;37937;61.490;23.506;2022-08-04T12:24:20;26.10;99.90
3478;DHT22;37937;61.490;23.506;2022-08-04T12:26:55;26.00;99.90
3478;DHT22;37937;61.490;23.506;2022-08-04T12:29:21;25.70;99.90
3478;DHT22;37937;61.490;23.506;2022-08-04T12:31:50;25.70;99.90
3478;DHT22;37937;61.490;23.506;2022-08-04T12:39:45;25.80;99.90
3478;DHT22;37937;61.490;23.506;2022-08-04T12:42:21;25.80;99.90
3478;DHT22;37937;61.490;23.506;2022-08-04T12:44:48;25.50;99.90
3478;DHT22;37937;61.490;23.506;2022-08-04T12:47:22;25.70;99.90
3478;DHT22;37937;61.490;23.506;2022-08-04T12:49:48;25.70;99.90
3478;DHT22;37937;61.490;23.506;2022-08-04T12:52:14;26.00;99.90
3478;DHT22;37937;61.490;23.506;2022-08-04T12:54:41;26.40;99.90
3478;DHT22;37937;61.490;23.506;2022-08-04T12:57:08;26.40;99.90
3478;DHT22;37937;61.490;23.506;2022-08-04T12:59:39;26.50;99.90
3478;DHT22;37937;61.490;23.506;2022-08-04T13:02:06;26.40;99.90
3478;DHT22;37937;61.490;23.506;2022-08-04T13:04:34;26.10;99.90
3478;DHT22;37937;61.490;23.506;2022-08-04T13:07:04;26.00;99.90
3478;DHT22;37937;61.490;23.506;2022-08-04T13:09:32;25.80;99.90
3478;DHT22;37937;61.490;23.506;2022-08-04T13:12:02;25.80;99.90
3478;DHT22;37937;61.490;23.506;2022-08-04T13:14:31;25.80;99.90
3478;DHT22;37937;61.490;23.506;2022-08-04T13:16:58;25.60;99.90
3478;DHT22;37937;61.490;23.506;2022-08-04T13:19:25;25.40;99.90
3478;DHT22;37937;61.490;23.506;2022-08-04T13:21:51;25.50;99.90
3478;DHT22;37937;61.490;23.506;2022-08-04T13:24:19;25.40;99.90
3478;DHT22;37937;61.490;23.506;2022-08-04T13:26:52;25.40;99.90
3478;DHT22;37937;61.490;23.506;2022-08-04T13:29:19;25.60;99.90
3478;DHT22;37937;61.490;23.506;2022-08-04T13:31:46;25.70;99.90
3478;DHT22;37937;61.490;23.506;2022-08-04T13:34:12;25.70;99.90
3478;DHT22;37937;61.490;23.506;2022-08-04T13:36:39;25.70;99.90
3478;DHT22;37937;61.490;23.506;2022-08-04T13:39:16;25.70;99.90
3478;DHT22;37937;61.490;23.506;2022-08-04T13:41:47;25.60;99.90
3478;DHT22;37937;61.490;23.506;2022-08-04T13:44:17;25.70;99.90
3478;DHT22;37937;61.490;23.506;2022-08-04T13:47:30;25.70;99.90
3478;DHT22;37937;61.490;23.506;2022-08-04T13:49:30;25.90;99.90
3478;DHT22;37937;61.490;23.506;2022-08-04T13:54:21;25.90;99.90
3478;DHT22;37937;61.490;23.506;2022-08-04T13:56:48;25.70;99.90
3478;DHT22;37937;61.490;23.506;2022-08-04T13:59:16;25.70;99.90
3478;DHT22;37937;61.490;23.506;2022-08-04T14:01:46;25.30;99.90
3478;DHT22;37937;61.490;23.506;2022-08-04T14:04:20;25.20;99.90
3478;DHT22;37937;61.490;23.506;2022-08-04T14:09:14;25.20;99.90
3478;DHT22;37937;61.490;23.506;2022-08-04T14:11:41;25.20;99.90
3478;DHT22;37937;61.490;23.506;2022-08-04T14:16:53;25.40;99.90
3478;DHT22;37937;61.490;23.506;2022-08-04T14:19:19;25.20;99.90
3478;DHT22;37937;61.490;23.506;2022-08-04T14:21:45;25.00;99.90
3478;DHT22;37937;61.490;23.506;2022-08-04T14:24:10;24.90;99.90
3478;DHT22;37937;61.490;23.506;2022-08-04T14:26:46;24.80;99.90
3478;DHT22;37937;61.490;23.506;2022-08-04T14:29:13;24.60;99.90
3478;DHT22;37937;61.490;23.506;2022-08-04T14:31:39;24.80;99.90
3478;DHT22;37937;61.490;23.506;2022-08-04T14:34:05;25.00;99.90
3478;DHT22;37937;61.490;23.506;2022-08-04T14:36:38;24.90;99.90
3478;DHT22;37937;61.490;23.506;2022-08-04T14:39:04;24.80;99.90
3478;DHT22;37937;61.490;23.506;2022-08-04T14:41:44;24.80;99.90
3478;DHT22;37937;61.490;23.506;2022-08-04T14:44:10;24.70;99.90
3478;DHT22;37937;61.490;23.506;2022-08-04T14:46:49;24.80;99.90
3478;DHT22;37937;61.490;23.506;2022-08-04T14:49:16;24.80;99.90
3478;DHT22;37937;61.490;23.506;2022-08-04T14:51:50;24.90;99.90
3478;DHT22;37937;61.490;23.506;2022-08-04T14:54:16;24.90;99.90
3478;DHT22;37937;61.490;23.506;2022-08-04T14:56:53;24.90;99.90
3478;DHT22;37937;61.490;23.506;2022-08-04T14:59:19;24.80;99.90
3478;DHT22;37937;61.490;23.506;2022-08-04T15:01:46;24.80;99.90
3478;DHT22;37937;61.490;23.506;2022-08-04T15:04:13;24.50;99.90
3478;DHT22;37937;61.490;23.506;2022-08-04T15:06:39;24.40;99.90
3478;DHT22;37937;61.490;23.506;2022-08-04T15:09:06;24.30;99.90
3478;DHT22;37937;61.490;23.506;2022-08-04T15:11:32;24.20;99.90
3478;DHT22;37937;61.490;23.506;2022-08-04T15:13:59;24.20;99.90
3478;DHT22;37937;61.490;23.506;2022-08-04T15:16:25;24.10;99.90
3478;DHT22;37937;61.490;23.506;2022-08-04T15:18:52;24.00;99.90
3478;DHT22;37937;61.490;23.506;2022-08-04T15:21:17;24.00;99.90
3478;DHT22;37937;61.490;23.506;2022-08-04T15:23:43;23.90;99.90
3478;DHT22;37937;61.490;23.506;2022-08-04T15:26:14;23.80;99.90
3478;DHT22;37937;61.490;23.506;2022-08-04T15:28:41;23.70;99.90
3478;DHT22;37937;61.490;23.506;2022-08-04T15:31:09;23.60;99.90
3478;DHT22;37937;61.490;23.506;2022-08-04T15:33:35;23.70;99.90
3478;DHT22;37937;61.490;23.506;2022-08-04T15:36:29;23.70;99.90
3478;DHT22;37937;61.490;23.506;2022-08-04T15:41:43;23.60;99.90
3478;DHT22;37937;61.490;23.506;2022-08-04T15:49:19;23.70;99.90
3478;DHT22;37937;61.490;23.506;2022-08-04T15:51:45;23.70;99.90
3478;DHT22;37937;61.490;23.506;2022-08-04T15:56:43;23.60;99.90
3478;DHT22;37937;61.490;23.506;2022-08-04T15:59:08;23.60;99.90
3478;DHT22;37937;61.490;23.506;2022-08-04T16:01:34;23.60;99.90
3478;DHT22;37937;61.490;23.506;2022-08-04T16:04:04;23.60;99.90
3478;DHT22;37937;61.490;23.506;2022-08-04T16:06:44;23.50;99.90
3478;DHT22;37937;61.490;23.506;2022-08-04T16:09:19;23.50;99.90
3478;DHT22;37937;61.490;23.506;2022-08-04T16:11:45;23.40;99.90
3478;DHT22;37937;61.490;23.506;2022-08-04T16:14:11;23.30;99.90
3478;DHT22;37937;61.490;23.506;2022-08-04T16:19:06;23.20;99.90
3478;DHT22;37937;61.490;23.506;2022-08-04T16:21:33;23.10;99.90
3478;DHT22;37937;61.490;23.506;2022-08-04T16:24:19;23.00;99.90
3478;DHT22;37937;61.490;23.506;2022-08-04T16:34:31;22.80;99.90
3478;DHT22;37937;61.490;23.506;2022-08-04T16:37:00;22.80;99.90
3478;DHT22;37937;61.490;23.506;2022-08-04T16:39:26;22.80;99.90
3478;DHT22;37937;61.490;23.506;2022-08-04T16:41:52;22.70;99.90
3478;DHT22;37937;61.490;23.506;2022-08-04T16:44:27;22.70;99.90
3478;DHT22;37937;61.490;23.506;2022-08-04T16:46:54;22.60;99.90
3478;DHT22;37937;61.490;23.506;2022-08-04T16:49:20;22.60;99.90
3478;DHT22;37937;61.490;23.506;2022-08-04T16:51:46;22.50;99.90
3478;DHT22;37937;61.490;23.506;2022-08-04T16:54:13;22.50;99.90
3478;DHT22;37937;61.490;23.506;2022-08-04T16:56:39;22.40;99.90
3478;DHT22;37937;61.490;23.506;2022-08-04T16:59:08;22.40;99.90
3478;DHT22;37937;61.490;23.506;2022-08-04T17:01:34;22.40;99.90
3478;DHT22;37937;61.490;23.506;2022-08-04T17:04:01;22.30;99.90
3478;DHT22;37937;61.490;23.506;2022-08-04T17:06:37;22.30;99.90
3478;DHT22;37937;61.490;23.506;2022-08-04T17:09:04;22.20;99.90
3478;DHT22;37937;61.490;23.506;2022-08-04T17:11:30;22.20;99.90
3478;DHT22;37937;61.490;23.506;2022-08-04T17:13:59;22.10;99.90
3478;DHT22;37937;61.490;23.506;2022-08-04T17:16:25;22.10;99.90
3478;DHT22;37937;61.490;23.506;2022-08-04T17:18:53;22.10;99.90
3478;DHT22;37937;61.490;23.506;2022-08-04T17:21:23;22.00;99.90
3478;DHT22;37937;61.490;23.506;2022-08-04T17:23:50;21.90;99.90
3478;DHT22;37937;61.490;23.506;2022-08-04T17:26:18;21.90;99.90
3478;DHT22;37937;61.490;23.506;2022-08-04T17:28:47;21.90;99.90
3478;DHT22;37937;61.490;23.506;2022-08-04T17:31:13;21.80;99.90
3478;DHT22;37937;61.490;23.506;2022-08-04T17:33:39;21.70;99.90
3478;DHT22;37937;61.490;23.506;2022-08-04T17:36:08;21.70;99.90
3478;DHT22;37937;61.490;23.506;2022-08-04T17:38:37;21.60;99.90
3478;DHT22;37937;61.490;23.506;2022-08-04T17:41:05;21.60;99.90
3478;DHT22;37937;61.490;23.506;2022-08-04T17:43:35;21.60;99.90
3478;DHT22;37937;61.490;23.506;2022-08-04T17:48:53;21.50;99.90
3478;DHT22;37937;61.490;23.506;2022-08-04T17:51:19;21.50;99.90
3478;DHT22;37937;61.490;23.506;2022-08-04T17:53:44;21.40;99.90
3478;DHT22;37937;61.490;23.506;2022-08-04T17:56:29;21.30;99.90
3478;DHT22;37937;61.490;23.506;2022-08-04T17:59:08;21.30;99.90
3478;DHT22;37937;61.490;23.506;2022-08-04T18:07:04;21.10;99.90
3478;DHT22;37937;61.490;23.506;2022-08-04T18:09:49;21.10;99.90
3478;DHT22;37937;61.490;23.506;2022-08-04T18:12:35;21.00;99.90
3478;DHT22;37937;61.490;23.506;2022-08-04T18:17:41;20.90;99.90
3478;DHT22;37937;61.490;23.506;2022-08-04T18:20:08;20.80;99.90
3478;DHT22;37937;61.490;23.506;2022-08-04T18:22:37;20.80;99.90
3478;DHT22;37937;61.490;23.506;2022-08-04T18:25:10;20.70;99.90
3478;DHT22;37937;61.490;23.506;2022-08-04T18:27:46;20.70;99.90
3478;DHT22;37937;61.490;23.506;2022-08-04T18:30:16;20.60;99.90
3478;DHT22;37937;61.490;23.506;2022-08-04T18:32:42;20.60;99.90
3478;DHT22;37937;61.490;23.506;2022-08-04T18:35:08;20.50;99.90
3478;DHT22;37937;61.490;23.506;2022-08-04T18:37:35;20.40;99.90
3478;DHT22;37937;61.490;23.506;2022-08-04T18:40:01;20.30;99.90
3478;DHT22;37937;61.490;23.506;2022-08-04T18:42:26;20.30;99.90
3478;DHT22;37937;61.490;23.506;2022-08-04T18:44:52;20.30;99.90
3478;DHT22;37937;61.490;23.506;2022-08-04T18:47:22;20.20;99.90
3478;DHT22;37937;61.490;23.506;2022-08-04T18:49:51;20.10;99.90
3478;DHT22;37937;61.490;23.506;2022-08-04T18:52:17;20.00;99.90
3478;DHT22;37937;61.490;23.506;2022-08-04T18:54:43;20.10;99.90
3478;DHT22;37937;61.490;23.506;2022-08-04T18:57:08;20.00;99.90
3478;DHT22;37937;61.490;23.506;2022-08-04T18:59:37;19.90;99.90
3478;DHT22;37937;61.490;23.506;2022-08-04T19:02:03;19.90;99.90
3478;DHT22;37937;61.490;23.506;2022-08-04T19:04:28;19.80;99.90
3478;DHT22;37937;61.490;23.506;2022-08-04T19:06:54;19.80;99.90
3478;DHT22;37937;61.490;23.506;2022-08-04T19:09:20;19.80;99.90
3478;DHT22;37937;61.490;23.506;2022-08-04T19:11:45;19.70;99.90
3478;DHT22;37937;61.490;23.506;2022-08-04T19:14:11;19.60;99.90
3478;DHT22;37937;61.490;23.506;2022-08-04T19:16:38;19.50;99.90
3478;DHT22;37937;61.490;23.506;2022-08-04T19:19:04;19.50;99.90
3478;DHT22;37937;61.490;23.506;2022-08-04T19:21:30;19.40;99.90
3478;DHT22;37937;61.490;23.506;2022-08-04T19:23:56;19.40;99.90
3478;DHT22;37937;61.490;23.506;2022-08-04T19:26:22;19.40;99.90
3478;DHT22;37937;61.490;23.506;2022-08-04T19:28:50;19.40;99.90
3478;DHT22;37937;61.490;23.506;2022-08-04T19:31:16;19.30;99.90
3478;DHT22;37937;61.490;23.506;2022-08-04T19:33:41;19.30;99.90
3478;DHT22;37937;61.490;23.506;2022-08-04T19:36:07;19.30;99.90
3478;DHT22;37937;61.490;23.506;2022-08-04T19:38:34;19.20;99.90
3478;DHT22;37937;61.490;23.506;2022-08-04T19:41:00;19.10;99.90
3478;DHT22;37937;61.490;23.506;2022-08-04T19:43:26;19.20;99.90
3478;DHT22;37937;61.490;23.506;2022-08-04T19:45:51;19.20;99.90
3478;DHT22;37937;61.490;23.506;2022-08-04T19:48:17;19.20;99.90
3478;DHT22;37937;61.490;23.506;2022-08-04T19:50:43;19.20;99.90
3478;DHT22;37937;61.490;23.506;2022-08-04T19:53:08;19.20;99.90
3478;DHT22;37937;61.490;23.506;2022-08-04T19:55:34;19.20;99.90
3478;DHT22;37937;61.490;23.506;2022-08-04T19:58:02;19.20;99.90
3478;DHT22;37937;61.490;23.506;2022-08-04T20:00:28;19.10;99.90
3478;DHT22;37937;61.490;23.506;2022-08-04T20:02:53;19.10;99.90